createdAt,value
2018-06-09T00:02:53.090Z,5.10
2018-06-09T00:05:57.468Z,5.80
2018-06-09T00:09:01.883Z,5.40
2018-06-09T00:12:06.258Z,5.60
2018-06-09T00:15:10.621Z,5.90
2018-06-09T00:18:15.009Z,5.83
2018-06-09T00:21:19.357Z,5.53
2018-06-09T00:24:23.725Z,6.30
2018-06-09T00:27:28.101Z,5.50
2018-06-09T00:30:32.193Z,5.70
2018-06-09T00:33:36.600Z,5.57
2018-06-09T00:36:41.795Z,6.10
2018-06-09T00:39:46.176Z,5.90
2018-06-09T00:42:50.530Z,6.00
2018-06-09T00:45:54.904Z,6.20
2018-06-09T00:48:59.266Z,5.53
2018-06-09T00:52:03.637Z,6.37
2018-06-09T00:55:07.682Z,6.43
2018-06-09T00:58:12.066Z,6.57
2018-06-09T01:01:16.412Z,6.90
2018-06-09T01:04:20.774Z,6.80
2018-06-09T01:07:25.145Z,6.60
2018-06-09T01:10:29.512Z,6.40
2018-06-09T01:13:33.877Z,7.23
2018-06-09T01:16:38.249Z,6.47
2018-06-09T01:19:42.657Z,7.20
2018-06-09T01:22:47.010Z,6.73
2018-06-09T01:25:51.397Z,7.53
2018-06-09T01:28:55.772Z,6.37
2018-06-09T01:32:00.162Z,6.40
2018-06-09T01:35:04.538Z,6.37
2018-06-09T01:38:08.941Z,6.43
2018-06-09T01:41:13.288Z,6.60
2018-06-09T01:44:17.646Z,5.97
2018-06-09T01:47:22.044Z,6.63
2018-06-09T01:50:26.413Z,5.97
2018-06-09T01:53:30.792Z,5.73
2018-06-09T01:56:35.156Z,5.57
2018-06-09T01:59:39.549Z,5.77
2018-06-09T02:02:43.925Z,6.10
2018-06-09T02:05:48.281Z,5.60
2018-06-09T02:08:52.644Z,4.97
2018-06-09T02:11:57.009Z,5.20
2018-06-09T02:15:01.382Z,4.80
2018-06-09T02:18:05.769Z,5.03
2018-06-09T02:21:10.145Z,4.90
2018-06-09T02:24:14.488Z,4.80
2018-06-09T02:27:18.877Z,4.27
2018-06-09T02:30:23.233Z,4.60
2018-06-09T02:33:27.612Z,4.87
2018-06-09T02:36:31.964Z,4.30
2018-06-09T02:39:36.353Z,4.70
2018-06-09T02:42:40.711Z,4.43
2018-06-09T02:45:45.065Z,4.33
2018-06-09T02:48:49.446Z,3.67
2018-06-09T02:51:53.827Z,3.90
2018-06-09T02:54:58.206Z,3.80
2018-06-09T02:58:02.590Z,3.53
2018-06-09T03:01:06.978Z,3.50
2018-06-09T03:04:11.353Z,3.10
2018-06-09T03:07:15.746Z,3.60
2018-06-09T03:10:20.100Z,3.30
2018-06-09T03:13:24.486Z,3.43
2018-06-09T03:16:28.861Z,2.97
2018-06-09T03:19:33.232Z,2.90
2018-06-09T03:22:37.605Z,2.87
2018-06-09T03:25:41.977Z,2.63
2018-06-09T03:28:46.329Z,2.10
2018-06-09T03:31:50.709Z,2.27
2018-06-09T03:34:55.061Z,2.07
2018-06-09T03:37:59.471Z,2.20
2018-06-09T03:41:03.836Z,1.80
2018-06-09T03:44:08.225Z,1.90
2018-06-09T03:47:12.582Z,2.07
2018-06-09T03:50:16.952Z,2.13
2018-06-09T03:53:21.321Z,2.00
2018-06-09T03:56:25.685Z,1.80
2018-06-09T03:59:30.085Z,2.00
2018-06-09T04:02:34.449Z,1.73
2018-06-09T04:05:38.814Z,2.07
2018-06-09T04:08:43.201Z,1.47
2018-06-09T04:11:47.561Z,1.33
2018-06-09T04:14:51.920Z,1.73
2018-06-09T04:17:56.283Z,1.47
2018-06-09T04:21:00.664Z,1.87
2018-06-09T04:24:05.068Z,1.70
2018-06-09T04:27:09.412Z,1.60
2018-06-09T04:30:13.817Z,1.70
2018-06-09T04:33:18.189Z,2.03
2018-06-09T04:36:22.569Z,1.80
2018-06-09T04:39:26.937Z,1.57
2018-06-09T04:42:31.325Z,1.60
2018-06-09T04:45:35.677Z,1.87
2018-06-09T04:48:40.069Z,1.87
2018-06-09T04:51:44.441Z,2.20
2018-06-09T04:54:48.822Z,1.60
2018-06-09T04:57:53.164Z,2.03
2018-06-09T05:00:57.562Z,1.53
2018-06-09T05:04:01.946Z,1.80
2018-06-09T05:07:06.308Z,1.70
2018-06-09T05:10:10.700Z,1.63
2018-06-09T05:13:15.074Z,1.50
2018-06-09T05:16:19.494Z,1.80
2018-06-09T05:19:23.865Z,1.47
2018-06-09T05:22:28.229Z,1.37
2018-06-09T05:25:32.605Z,1.40
2018-06-09T05:28:36.988Z,1.70
2018-06-09T05:31:41.381Z,1.50
2018-06-09T05:34:45.778Z,1.47
2018-06-09T05:37:50.160Z,1.57
2018-06-09T05:40:55.754Z,1.40
2018-06-09T05:44:00.137Z,1.67
2018-06-09T05:47:04.547Z,1.37
2018-06-09T05:50:08.914Z,1.70
2018-06-09T05:53:13.312Z,1.77
2018-06-09T05:56:17.671Z,1.77
2018-06-09T05:59:22.045Z,1.70
2018-06-09T06:02:26.404Z,1.70
2018-06-09T06:05:30.780Z,1.70
2018-06-09T06:08:35.255Z,1.50
2018-06-09T06:11:39.662Z,1.47
2018-06-09T06:14:44.049Z,1.10
2018-06-09T06:17:48.160Z,1.97
2018-06-09T06:20:52.533Z,2.00
2018-06-09T06:23:56.929Z,1.50
2018-06-09T06:27:01.308Z,1.30
2018-06-09T06:30:05.720Z,1.30
2018-06-09T06:33:10.136Z,1.47
2018-06-09T06:36:14.514Z,1.53
2018-06-09T06:39:18.893Z,1.80
2018-06-09T06:42:23.248Z,1.50
2018-06-09T06:45:27.597Z,1.67
2018-06-09T06:48:31.985Z,1.50
2018-06-09T06:51:36.365Z,1.70
2018-06-09T06:54:40.738Z,1.80
2018-06-09T06:57:45.102Z,1.53
2018-06-09T07:00:49.470Z,1.70
2018-06-09T07:03:53.869Z,1.80
2018-06-09T07:06:58.233Z,1.70
2018-06-09T07:10:02.600Z,1.80
2018-06-09T07:13:06.968Z,1.63
2018-06-09T07:16:11.353Z,2.10
2018-06-09T07:19:15.736Z,2.10
2018-06-09T07:22:20.130Z,2.17
2018-06-09T07:25:24.502Z,2.33
2018-06-09T07:28:28.881Z,2.43
2018-06-09T07:31:33.276Z,2.30
2018-06-09T07:34:37.712Z,2.33
2018-06-09T07:37:42.086Z,2.60
2018-06-09T07:40:46.453Z,3.00
2018-06-09T07:43:50.814Z,3.07
2018-06-09T07:46:55.172Z,3.20
2018-06-09T07:49:59.522Z,3.23
2018-06-09T07:53:03.947Z,3.20
2018-06-09T07:56:08.324Z,3.50
2018-06-09T07:59:12.725Z,3.00
2018-06-09T08:02:17.081Z,3.67
2018-06-09T08:05:21.453Z,3.40
2018-06-09T08:08:25.817Z,3.80
2018-06-09T08:11:30.198Z,3.83
2018-06-09T08:14:34.568Z,3.60
2018-06-09T08:17:38.946Z,3.40
2018-06-09T08:20:43.312Z,3.57
2018-06-09T08:23:47.687Z,3.30
2018-06-09T08:26:52.083Z,3.30
2018-06-09T08:29:56.473Z,3.40
2018-06-09T08:33:00.886Z,3.80
2018-06-09T08:36:05.416Z,3.40
2018-06-09T08:39:11.237Z,4.00
2018-06-09T08:42:18.299Z,4.07
2018-06-09T08:45:22.754Z,4.00
2018-06-09T08:48:27.155Z,4.43
2018-06-09T08:51:31.594Z,4.40
2018-06-09T08:54:36.021Z,4.03
2018-06-09T08:57:40.417Z,4.33
2018-06-09T09:00:44.841Z,3.80
2018-06-09T09:03:49.252Z,3.73
2018-06-09T09:06:53.636Z,4.00
2018-06-09T09:09:58.045Z,4.03
2018-06-09T09:13:02.490Z,4.23
2018-06-09T09:16:06.905Z,4.03
2018-06-09T09:19:11.320Z,4.17
2018-06-09T09:22:15.701Z,3.67
2018-06-09T09:25:20.100Z,3.90
2018-06-09T09:28:24.500Z,4.17
2018-06-09T09:31:28.904Z,4.43
2018-06-09T09:34:33.328Z,4.13
2018-06-09T09:37:37.778Z,4.20
2018-06-09T09:40:42.185Z,4.00
2018-06-09T09:43:46.617Z,4.27
2018-06-09T09:46:51.045Z,3.73
2018-06-09T09:49:55.216Z,3.90
2018-06-09T09:52:59.633Z,4.13
2018-06-09T09:56:04.089Z,4.73
2018-06-09T09:59:08.498Z,4.67
2018-06-09T10:02:13.044Z,5.30
2018-06-09T10:05:18.109Z,5.40
2018-06-09T10:08:22.541Z,5.33
2018-06-09T10:11:26.964Z,5.70
2018-06-09T10:14:31.426Z,6.10
2018-06-09T10:17:35.873Z,5.40
2018-06-09T10:20:40.313Z,5.53
2018-06-09T10:23:44.716Z,4.87
2018-06-09T10:26:49.196Z,4.70
2018-06-09T10:29:53.640Z,4.53
2018-06-09T10:32:58.161Z,4.40
2018-06-09T10:36:02.840Z,4.47
2018-06-09T10:39:09.394Z,4.67
2018-06-09T10:42:14.000Z,4.53
2018-06-09T10:45:21.011Z,4.80
2018-06-09T10:48:25.626Z,5.33
2018-06-09T10:51:30.113Z,5.03
2018-06-09T10:54:37.098Z,5.23
2018-06-09T10:57:41.761Z,5.40
2018-06-09T11:00:47.639Z,5.20
2018-06-09T11:03:52.345Z,4.93
2018-06-09T11:06:56.749Z,4.70
2018-06-09T11:10:01.194Z,5.20
2018-06-09T11:13:05.733Z,5.13
2018-06-09T11:16:10.146Z,4.90
2018-06-09T11:19:14.527Z,4.57
2018-06-09T11:22:18.934Z,3.83
2018-06-09T11:25:23.346Z,4.37
2018-06-09T11:28:27.758Z,4.10
2018-06-09T11:31:32.194Z,4.73
2018-06-09T11:34:36.613Z,4.40
2018-06-09T11:37:41.333Z,4.60
2018-06-09T11:40:45.761Z,5.10
2018-06-09T11:43:50.170Z,4.93
2018-06-09T11:46:54.561Z,4.90
2018-06-09T11:49:58.962Z,4.87
2018-06-09T11:53:03.374Z,5.10
2018-06-09T11:56:07.750Z,5.13
2018-06-09T11:59:12.148Z,5.10
2018-06-09T12:02:16.537Z,5.00
2018-06-09T12:05:20.937Z,4.53
2018-06-09T12:08:25.364Z,4.53
2018-06-09T12:11:29.764Z,4.23
2018-06-09T12:14:34.146Z,4.20
2018-06-09T12:17:38.570Z,4.90
2018-06-09T12:20:42.954Z,4.57
2018-06-09T12:23:47.349Z,3.50
2018-06-09T12:26:51.753Z,3.27
2018-06-09T12:29:56.156Z,3.00
2018-06-09T12:33:00.571Z,3.10
2018-06-09T12:36:05.013Z,3.03
2018-06-09T12:39:09.417Z,2.40
2018-06-09T12:42:13.813Z,2.63
2018-06-09T12:45:18.201Z,2.27
2018-06-09T12:48:22.590Z,2.40
2018-06-09T12:51:26.996Z,2.40
2018-06-09T12:54:31.502Z,2.40
2018-06-09T12:57:35.867Z,2.63
2018-06-09T13:00:40.267Z,2.53
2018-06-09T13:03:44.652Z,2.50
2018-06-09T13:06:49.089Z,2.50
2018-06-09T13:09:53.482Z,2.13
2018-06-09T13:12:57.886Z,2.13
2018-06-09T13:16:02.306Z,1.87
2018-06-09T13:19:07.873Z,1.60
2018-06-09T13:22:12.302Z,1.60
2018-06-09T13:25:16.685Z,1.70
2018-06-09T13:28:21.121Z,1.70
2018-06-09T13:31:26.006Z,1.57
2018-06-09T13:34:30.409Z,1.40
2018-06-09T13:37:34.805Z,1.77
2018-06-09T13:40:39.214Z,1.50
2018-06-09T13:43:43.577Z,1.70
2018-06-09T13:46:47.985Z,1.87
2018-06-09T13:49:52.393Z,1.80
2018-06-09T13:52:56.810Z,1.30
2018-06-09T13:56:01.189Z,1.37
2018-06-09T13:59:05.616Z,1.47
2018-06-09T14:02:10.025Z,1.30
2018-06-09T14:05:14.393Z,1.33
2018-06-09T14:08:18.773Z,1.47
2018-06-09T14:11:23.113Z,1.70
2018-06-09T14:14:27.457Z,1.80
2018-06-09T14:17:31.817Z,1.50
2018-06-09T14:20:36.192Z,1.90
2018-06-09T14:23:40.550Z,1.70
2018-06-09T14:26:44.928Z,1.80
2018-06-09T14:29:49.313Z,1.80
2018-06-09T14:32:53.689Z,2.17
2018-06-09T14:35:58.049Z,1.50
2018-06-09T14:39:02.446Z,1.70
2018-06-09T14:42:06.886Z,2.00
2018-06-09T14:45:11.283Z,1.80
2018-06-09T14:48:15.669Z,2.30
2018-06-09T14:51:20.050Z,2.00
2018-06-09T14:54:24.450Z,2.30
2018-06-09T14:57:28.851Z,2.37
2018-06-09T15:00:33.236Z,2.07
2018-06-09T15:03:37.605Z,2.23
2018-06-09T15:06:42.037Z,2.73
2018-06-09T15:09:46.432Z,2.23
2018-06-09T15:12:50.843Z,2.40
2018-06-09T15:15:55.217Z,2.50
2018-06-09T15:18:59.612Z,2.20
2018-06-09T15:22:04.026Z,2.10
2018-06-09T15:25:08.458Z,2.03
2018-06-09T15:28:12.908Z,2.00
2018-06-09T15:31:17.281Z,1.97
2018-06-09T15:34:21.664Z,2.10
2018-06-09T15:37:26.078Z,1.53
2018-06-09T15:40:30.469Z,2.13
2018-06-09T15:43:34.854Z,2.10
2018-06-09T15:46:39.242Z,1.83
2018-06-09T15:49:43.666Z,1.63
2018-06-09T15:52:48.081Z,1.60
2018-06-09T15:55:52.514Z,1.67
2018-06-09T15:58:56.889Z,1.90
2018-06-09T16:02:01.273Z,1.80
2018-06-09T16:05:05.657Z,1.67
2018-06-09T16:08:10.043Z,1.70
2018-06-09T16:11:14.405Z,1.50
2018-06-09T16:14:18.813Z,1.87
2018-06-09T16:17:23.185Z,1.50
2018-06-09T16:20:27.557Z,1.70
2018-06-09T16:23:31.922Z,1.43
2018-06-09T16:26:36.281Z,1.70
2018-06-09T16:29:40.641Z,1.87
2018-06-09T16:32:45.032Z,2.13
2018-06-09T16:35:49.413Z,1.70
2018-06-09T16:38:53.803Z,1.37
2018-06-09T16:41:58.177Z,1.50
2018-06-09T16:45:02.541Z,1.17
2018-06-09T16:48:07.025Z,1.10
2018-06-09T16:51:11.400Z,1.20
2018-06-09T16:54:15.809Z,1.30
2018-06-09T16:57:20.205Z,1.43
2018-06-09T17:00:24.583Z,1.10
2018-06-09T17:03:28.961Z,1.20
2018-06-09T17:06:33.356Z,1.37
2018-06-09T17:09:37.725Z,1.60
2018-06-09T17:12:42.104Z,1.33
2018-06-09T17:15:46.480Z,1.37
2018-06-09T17:18:50.864Z,1.40
2018-06-09T17:21:55.253Z,1.10
2018-06-09T17:24:59.628Z,1.53
2018-06-09T17:28:03.998Z,1.30
2018-06-09T17:31:08.385Z,1.57
2018-06-09T17:34:12.753Z,1.50
2018-06-09T17:37:17.152Z,1.43
2018-06-09T17:40:21.578Z,1.50
2018-06-09T17:43:25.971Z,1.47
2018-06-09T17:46:30.349Z,1.30
2018-06-09T17:49:34.743Z,3.80
2018-06-09T17:52:39.097Z,2.67
2018-06-09T17:55:43.469Z,2.00
2018-06-09T17:58:47.837Z,1.83
2018-06-09T18:01:52.233Z,1.50
2018-06-09T18:04:56.625Z,1.83
2018-06-09T18:08:01.029Z,1.80
2018-06-09T18:11:05.396Z,1.50
2018-06-09T18:14:09.781Z,1.43
2018-06-09T18:17:14.165Z,2.00
2018-06-09T18:20:18.576Z,1.53
2018-06-09T18:23:22.973Z,2.10
2018-06-09T18:26:27.426Z,1.77
2018-06-09T18:29:31.749Z,1.57
2018-06-09T18:32:36.128Z,2.03
2018-06-09T18:35:40.509Z,1.87
2018-06-09T18:38:44.899Z,1.70
2018-06-09T18:41:49.260Z,1.50
2018-06-09T18:44:53.646Z,1.77
2018-06-09T18:47:58.008Z,1.70
2018-06-09T18:51:02.401Z,1.80
2018-06-09T18:54:06.881Z,1.67
2018-06-09T18:57:11.265Z,1.63
2018-06-09T19:00:15.669Z,1.70
2018-06-09T19:03:20.066Z,1.80
2018-06-09T19:06:24.480Z,1.73
2018-06-09T19:09:28.873Z,1.50
2018-06-09T19:12:33.425Z,1.60
2018-06-09T19:15:37.830Z,1.73
2018-06-09T19:18:42.220Z,1.70
2018-06-09T19:21:46.586Z,1.70
2018-06-09T19:24:51.013Z,1.87
2018-06-09T19:27:55.383Z,2.23
2018-06-09T19:30:59.766Z,1.90
2018-06-09T19:34:04.149Z,3.10
2018-06-09T19:37:08.537Z,2.63
2018-06-09T19:40:12.931Z,2.73
2018-06-09T19:43:17.296Z,2.00
2018-06-09T19:46:21.694Z,1.90
2018-06-09T19:49:26.072Z,1.93
2018-06-09T19:52:30.465Z,2.03
2018-06-09T19:55:34.874Z,2.33
2018-06-09T19:58:39.250Z,2.10
2018-06-09T20:01:43.626Z,2.00
2018-06-09T20:04:48.018Z,1.90
2018-06-09T20:07:52.421Z,1.93
2018-06-09T20:10:56.792Z,2.13
2018-06-09T20:14:01.193Z,1.87
2018-06-09T20:17:05.641Z,2.17
2018-06-09T20:20:10.018Z,2.00
2018-06-09T20:23:14.384Z,2.40
2018-06-09T20:26:18.485Z,2.00
2018-06-09T20:29:22.894Z,2.30
2018-06-09T20:32:27.336Z,1.90
2018-06-09T20:35:31.741Z,2.23
2018-06-09T20:38:36.145Z,2.20
2018-06-09T20:41:40.504Z,2.43
2018-06-09T20:44:44.892Z,3.17
2018-06-09T20:47:49.281Z,4.03
2018-06-09T20:50:53.741Z,3.03
2018-06-09T20:53:58.214Z,3.03
2018-06-09T20:57:02.581Z,3.10
2018-06-09T21:00:06.973Z,3.03
2018-06-09T21:03:11.369Z,2.87
2018-06-09T21:06:15.734Z,3.10
2018-06-09T21:09:20.115Z,3.23
2018-06-09T21:12:24.521Z,3.37
2018-06-09T21:15:28.909Z,3.20
2018-06-09T21:18:33.264Z,3.67
2018-06-09T21:21:37.627Z,3.63
2018-06-09T21:24:42.002Z,3.53
2018-06-09T21:27:51.441Z,3.13
2018-06-09T21:31:00.880Z,3.17
2018-06-09T21:34:27.605Z,3.03
2018-06-09T21:37:40.245Z,3.60
2018-06-09T21:40:49.239Z,3.70
2018-06-09T21:43:56.724Z,4.07
2018-06-09T21:47:01.129Z,4.40
2018-06-09T21:50:05.767Z,4.33
2018-06-09T21:53:10.166Z,4.20
2018-06-09T21:56:14.269Z,4.13
2018-06-09T21:59:18.635Z,4.70
2018-06-09T22:02:23.398Z,4.97
2018-06-09T22:05:27.854Z,4.90
2018-06-09T22:08:32.242Z,4.37
2018-06-09T22:11:36.613Z,4.63
2018-06-09T22:14:41.025Z,4.70
2018-06-09T22:17:45.405Z,4.50
2018-06-09T22:20:49.768Z,4.63
2018-06-09T22:23:54.124Z,4.50
2018-06-09T22:26:58.486Z,4.43
2018-06-09T22:30:02.902Z,3.30
2018-06-09T22:33:07.266Z,3.50
2018-06-09T22:36:11.648Z,3.47
2018-06-09T22:39:16.009Z,3.30
2018-06-09T22:42:20.364Z,3.77
2018-06-09T22:45:24.738Z,4.13
2018-06-09T22:48:29.125Z,4.57
2018-06-09T22:51:33.481Z,5.17
2018-06-09T22:54:37.886Z,4.90
2018-06-09T22:57:42.269Z,5.10
2018-06-09T23:00:50.194Z,5.77
2018-06-09T23:03:54.562Z,5.97
2018-06-09T23:06:58.920Z,7.00
2018-06-09T23:10:03.272Z,6.57
2018-06-09T23:13:07.640Z,6.80
2018-06-09T23:16:11.992Z,7.00
2018-06-09T23:19:16.388Z,7.30
2018-06-09T23:22:20.819Z,8.00
2018-06-09T23:25:25.157Z,7.83
2018-06-09T23:28:29.513Z,8.50
2018-06-09T23:31:33.877Z,8.83
2018-06-09T23:34:38.231Z,8.43
2018-06-09T23:37:42.629Z,8.27
2018-06-09T23:40:46.980Z,7.53
2018-06-09T23:43:51.353Z,8.50
2018-06-09T23:46:55.692Z,8.43
2018-06-09T23:50:00.099Z,7.83
2018-06-09T23:53:04.507Z,9.00
2018-06-09T23:56:08.945Z,9.13
2018-06-09T23:59:13.297Z,8.17
